sensor_id;sensor_type;location;lat;lon;timestamp;P1;durP1;ratioP1;P2;durP2;ratioP2
29432;SDS011;16405;53.964;13.448;2023-03-24T00:00:31;13.85;;;5.90;;
29432;SDS011;16405;53.964;13.448;2023-03-24T00:02:58;15.52;;;5.63;;
29432;SDS011;16405;53.964;13.448;2023-03-24T00:05:26;11.93;;;5.30;;
29432;SDS011;16405;53.964;13.448;2023-03-24T00:07:54;10.52;;;5.43;;
29432;SDS011;16405;53.964;13.448;2023-03-24T00:10:28;12.75;;;5.45;;
29432;SDS011;16405;53.964;13.448;2023-03-24T00:12:58;11.27;;;5.00;;
29432;SDS011;16405;53.964;13.448;2023-03-24T00:15:25;10.65;;;5.55;;
29432;SDS011;16405;53.964;13.448;2023-03-24T00:17:54;15.70;;;5.07;;
29432;SDS011;16405;53.964;13.448;2023-03-24T00:20:22;15.20;;;5.60;;
29432;SDS011;16405;53.964;13.448;2023-03-24T00:22:51;11.93;;;5.20;;
29432;SDS011;16405;53.964;13.448;2023-03-24T00:25:29;15.57;;;5.30;;
29432;SDS011;16405;53.964;13.448;2023-03-24T00:28:00;15.23;;;5.82;;
29432;SDS011;16405;53.964;13.448;2023-03-24T00:30:27;14.00;;;4.90;;
29432;SDS011;16405;53.964;13.448;2023-03-24T00:32:53;14.93;;;5.90;;
29432;SDS011;16405;53.964;13.448;2023-03-24T00:35:19;16.77;;;5.88;;
29432;SDS011;16405;53.964;13.448;2023-03-24T00:37:46;13.98;;;5.60;;
29432;SDS011;16405;53.964;13.448;2023-03-24T00:40:16;15.27;;;5.20;;
29432;SDS011;16405;53.964;13.448;2023-03-24T00:42:46;15.02;;;5.93;;
29432;SDS011;16405;53.964;13.448;2023-03-24T00:45:14;18.58;;;5.65;;
29432;SDS011;16405;53.964;13.448;2023-03-24T00:47:46;22.50;;;5.90;;
29432;SDS011;16405;53.964;13.448;2023-03-24T00:50:15;12.38;;;5.45;;
29432;SDS011;16405;53.964;13.448;2023-03-24T00:52:44;17.20;;;6.20;;
29432;SDS011;16405;53.964;13.448;2023-03-24T00:55:19;11.35;;;5.85;;
29432;SDS011;16405;53.964;13.448;2023-03-24T00:57:47;14.32;;;6.10;;
29432;SDS011;16405;53.964;13.448;2023-03-24T01:00:22;19.73;;;5.53;;
29432;SDS011;16405;53.964;13.448;2023-03-24T01:02:51;15.07;;;5.53;;
29432;SDS011;16405;53.964;13.448;2023-03-24T01:05:23;17.30;;;6.05;;
29432;SDS011;16405;53.964;13.448;2023-03-24T01:07:55;14.95;;;5.85;;
29432;SDS011;16405;53.964;13.448;2023-03-24T01:10:23;18.88;;;6.22;;
29432;SDS011;16405;53.964;13.448;2023-03-24T01:12:55;17.45;;;5.93;;
29432;SDS011;16405;53.964;13.448;2023-03-24T01:15:25;17.67;;;6.22;;
29432;SDS011;16405;53.964;13.448;2023-03-24T01:17:57;20.63;;;9.48;;
29432;SDS011;16405;53.964;13.448;2023-03-24T01:20:26;30.58;;;13.68;;
29432;SDS011;16405;53.964;13.448;2023-03-24T01:23:01;25.23;;;12.98;;
29432;SDS011;16405;53.964;13.448;2023-03-24T01:25:31;15.80;;;7.55;;
29432;SDS011;16405;53.964;13.448;2023-03-24T01:28:12;21.25;;;6.57;;
29432;SDS011;16405;53.964;13.448;2023-03-24T01:30:48;26.92;;;17.05;;
29432;SDS011;16405;53.964;13.448;2023-03-24T01:33:14;28.10;;;16.13;;
29432;SDS011;16405;53.964;13.448;2023-03-24T01:35:40;19.23;;;9.18;;
29432;SDS011;16405;53.964;13.448;2023-03-24T01:38:12;21.20;;;7.07;;
29432;SDS011;16405;53.964;13.448;2023-03-24T01:40:40;14.35;;;6.40;;
29432;SDS011;16405;53.964;13.448;2023-03-24T01:43:15;15.32;;;6.18;;
29432;SDS011;16405;53.964;13.448;2023-03-24T01:51:34;20.02;;;6.82;;
29432;SDS011;16405;53.964;13.448;2023-03-24T01:54:18;12.85;;;6.45;;
29432;SDS011;16405;53.964;13.448;2023-03-24T01:57:12;18.20;;;6.80;;
29432;SDS011;16405;53.964;13.448;2023-03-24T02:02:36;16.02;;;5.88;;
29432;SDS011;16405;53.964;13.448;2023-03-24T02:05:09;18.33;;;6.35;;
29432;SDS011;16405;53.964;13.448;2023-03-24T02:07:40;20.80;;;6.40;;
29432;SDS011;16405;53.964;13.448;2023-03-24T02:10:18;20.42;;;6.20;;
29432;SDS011;16405;53.964;13.448;2023-03-24T02:12:48;23.58;;;6.13;;
29432;SDS011;16405;53.964;13.448;2023-03-24T02:15:15;16.45;;;5.82;;
29432;SDS011;16405;53.964;13.448;2023-03-24T02:17:49;26.17;;;6.50;;
29432;SDS011;16405;53.964;13.448;2023-03-24T02:26:35;12.70;;;6.25;;
29432;SDS011;16405;53.964;13.448;2023-03-24T02:29:57;21.67;;;6.00;;
29432;SDS011;16405;53.964;13.448;2023-03-24T02:44:46;14.57;;;5.57;;
29432;SDS011;16405;53.964;13.448;2023-03-24T02:59:37;19.00;;;6.18;;
29432;SDS011;16405;53.964;13.448;2023-03-24T03:02:47;11.65;;;5.57;;
29432;SDS011;16405;53.964;13.448;2023-03-24T03:05:16;16.80;;;6.53;;
29432;SDS011;16405;53.964;13.448;2023-03-24T03:07:48;16.40;;;6.05;;
29432;SDS011;16405;53.964;13.448;2023-03-24T03:10:18;27.05;;;7.03;;
29432;SDS011;16405;53.964;13.448;2023-03-24T03:12:57;18.02;;;6.18;;
29432;SDS011;16405;53.964;13.448;2023-03-24T03:15:33;23.13;;;6.38;;
29432;SDS011;16405;53.964;13.448;2023-03-24T03:18:13;25.63;;;6.28;;
29432;SDS011;16405;53.964;13.448;2023-03-24T03:21:14;25.83;;;6.00;;
29432;SDS011;16405;53.964;13.448;2023-03-24T03:23:53;21.75;;;6.03;;
29432;SDS011;16405;53.964;13.448;2023-03-24T03:26:32;17.65;;;5.93;;
29432;SDS011;16405;53.964;13.448;2023-03-24T03:29:00;19.10;;;6.68;;
29432;SDS011;16405;53.964;13.448;2023-03-24T03:31:54;24.83;;;7.00;;
29432;SDS011;16405;53.964;13.448;2023-03-24T03:34:42;19.95;;;7.10;;
29432;SDS011;16405;53.964;13.448;2023-03-24T03:40:53;22.50;;;7.35;;
29432;SDS011;16405;53.964;13.448;2023-03-24T03:43:21;22.05;;;7.18;;
29432;SDS011;16405;53.964;13.448;2023-03-24T03:45:48;22.88;;;7.20;;
29432;SDS011;16405;53.964;13.448;2023-03-24T03:48:21;14.80;;;7.30;;
29432;SDS011;16405;53.964;13.448;2023-03-24T03:50:50;16.38;;;7.32;;
29432;SDS011;16405;53.964;13.448;2023-03-24T03:53:30;17.90;;;7.90;;
29432;SDS011;16405;53.964;13.448;2023-03-24T03:56:25;19.90;;;7.45;;
29432;SDS011;16405;53.964;13.448;2023-03-24T03:59:03;23.95;;;8.20;;
29432;SDS011;16405;53.964;13.448;2023-03-24T04:01:33;14.38;;;8.25;;
29432;SDS011;16405;53.964;13.448;2023-03-24T04:04:28;19.02;;;8.23;;
29432;SDS011;16405;53.964;13.448;2023-03-24T04:07:37;18.38;;;9.10;;
29432;SDS011;16405;53.964;13.448;2023-03-24T04:30:13;24.85;;;10.18;;
29432;SDS011;16405;53.964;13.448;2023-03-24T04:36:27;30.40;;;9.93;;
29432;SDS011;16405;53.964;13.448;2023-03-24T04:39:24;18.23;;;9.70;;
29432;SDS011;16405;53.964;13.448;2023-03-24T04:42:03;26.93;;;10.23;;
29432;SDS011;16405;53.964;13.448;2023-03-24T04:45:12;14.77;;;9.38;;
29432;SDS011;16405;53.964;13.448;2023-03-24T04:51:03;22.38;;;9.95;;
29432;SDS011;16405;53.964;13.448;2023-03-24T04:53:32;20.35;;;9.20;;
29432;SDS011;16405;53.964;13.448;2023-03-24T04:59:11;18.05;;;9.50;;
29432;SDS011;16405;53.964;13.448;2023-03-24T05:01:41;21.10;;;9.77;;
29432;SDS011;16405;53.964;13.448;2023-03-24T05:04:20;18.67;;;9.20;;
29432;SDS011;16405;53.964;13.448;2023-03-24T05:06:52;14.07;;;8.60;;
29432;SDS011;16405;53.964;13.448;2023-03-24T05:09:23;17.88;;;8.13;;
29432;SDS011;16405;53.964;13.448;2023-03-24T05:11:50;14.18;;;8.25;;
29432;SDS011;16405;53.964;13.448;2023-03-24T05:14:16;17.92;;;8.57;;
29432;SDS011;16405;53.964;13.448;2023-03-24T05:16:43;18.17;;;8.90;;
29432;SDS011;16405;53.964;13.448;2023-03-24T05:19:12;18.63;;;8.90;;
29432;SDS011;16405;53.964;13.448;2023-03-24T05:21:41;15.20;;;8.48;;
29432;SDS011;16405;53.964;13.448;2023-03-24T05:24:07;21.33;;;8.48;;
29432;SDS011;16405;53.964;13.448;2023-03-24T05:26:36;16.05;;;8.60;;
29432;SDS011;16405;53.964;13.448;2023-03-24T05:29:07;17.50;;;8.45;;
29432;SDS011;16405;53.964;13.448;2023-03-24T05:31:35;20.05;;;8.30;;
29432;SDS011;16405;53.964;13.448;2023-03-24T05:34:01;18.05;;;8.73;;
29432;SDS011;16405;53.964;13.448;2023-03-24T05:36:27;15.10;;;8.38;;
29432;SDS011;16405;53.964;13.448;2023-03-24T05:39:01;21.42;;;8.40;;
29432;SDS011;16405;53.964;13.448;2023-03-24T05:41:28;14.18;;;7.72;;
29432;SDS011;16405;53.964;13.448;2023-03-24T05:43:54;15.40;;;7.43;;
29432;SDS011;16405;53.964;13.448;2023-03-24T05:46:20;18.27;;;6.80;;
29432;SDS011;16405;53.964;13.448;2023-03-24T05:48:45;12.75;;;5.85;;
29432;SDS011;16405;53.964;13.448;2023-03-24T05:51:17;12.50;;;6.25;;
29432;SDS011;16405;53.964;13.448;2023-03-24T05:53:44;11.95;;;5.95;;
29432;SDS011;16405;53.964;13.448;2023-03-24T05:56:10;10.85;;;6.07;;
29432;SDS011;16405;53.964;13.448;2023-03-24T05:58:36;16.35;;;6.47;;
29432;SDS011;16405;53.964;13.448;2023-03-24T06:01:10;10.85;;;5.95;;
29432;SDS011;16405;53.964;13.448;2023-03-24T06:03:37;10.15;;;5.45;;
29432;SDS011;16405;53.964;13.448;2023-03-24T06:06:07;17.25;;;6.53;;
29432;SDS011;16405;53.964;13.448;2023-03-24T06:08:40;13.10;;;6.38;;
29432;SDS011;16405;53.964;13.448;2023-03-24T06:11:09;10.02;;;5.70;;
29432;SDS011;16405;53.964;13.448;2023-03-24T06:13:40;13.07;;;5.57;;
29432;SDS011;16405;53.964;13.448;2023-03-24T06:16:06;11.10;;;5.88;;
29432;SDS011;16405;53.964;13.448;2023-03-24T06:18:52;10.80;;;5.72;;
29432;SDS011;16405;53.964;13.448;2023-03-24T06:24:08;11.35;;;5.68;;
29432;SDS011;16405;53.964;13.448;2023-03-24T06:26:39;9.52;;;5.90;;
29432;SDS011;16405;53.964;13.448;2023-03-24T06:29:14;11.10;;;6.15;;
29432;SDS011;16405;53.964;13.448;2023-03-24T06:31:44;11.00;;;5.82;;
29432;SDS011;16405;53.964;13.448;2023-03-24T06:34:13;9.68;;;6.10;;
29432;SDS011;16405;53.964;13.448;2023-03-24T06:36:40;9.18;;;5.75;;
29432;SDS011;16405;53.964;13.448;2023-03-24T06:39:06;11.25;;;5.82;;
29432;SDS011;16405;53.964;13.448;2023-03-24T06:41:37;12.95;;;5.65;;
29432;SDS011;16405;53.964;13.448;2023-03-24T06:44:05;9.60;;;5.95;;
29432;SDS011;16405;53.964;13.448;2023-03-24T06:46:31;11.23;;;5.68;;
29432;SDS011;16405;53.964;13.448;2023-03-24T06:48:56;9.63;;;5.70;;
29432;SDS011;16405;53.964;13.448;2023-03-24T06:51:22;7.93;;;5.25;;
29432;SDS011;16405;53.964;13.448;2023-03-24T06:53:48;11.35;;;5.72;;
29432;SDS011;16405;53.964;13.448;2023-03-24T06:56:18;10.25;;;5.10;;
29432;SDS011;16405;53.964;13.448;2023-03-24T06:58:45;8.98;;;5.15;;
29432;SDS011;16405;53.964;13.448;2023-03-24T07:01:12;10.32;;;5.40;;
29432;SDS011;16405;53.964;13.448;2023-03-24T07:03:38;13.55;;;5.65;;
29432;SDS011;16405;53.964;13.448;2023-03-24T07:06:09;7.10;;;4.85;;
29432;SDS011;16405;53.964;13.448;2023-03-24T07:08:35;11.10;;;5.38;;
29432;SDS011;16405;53.964;13.448;2023-03-24T07:11:01;9.85;;;5.55;;
29432;SDS011;16405;53.964;13.448;2023-03-24T07:13:28;9.07;;;5.45;;
29432;SDS011;16405;53.964;13.448;2023-03-24T07:15:54;9.80;;;4.95;;
29432;SDS011;16405;53.964;13.448;2023-03-24T07:18:20;8.32;;;5.30;;
29432;SDS011;16405;53.964;13.448;2023-03-24T07:20:45;8.32;;;4.93;;
29432;SDS011;16405;53.964;13.448;2023-03-24T07:23:17;10.18;;;4.90;;
29432;SDS011;16405;53.964;13.448;2023-03-24T07:25:43;9.98;;;4.70;;
29432;SDS011;16405;53.964;13.448;2023-03-24T07:28:09;10.82;;;5.07;;
29432;SDS011;16405;53.964;13.448;2023-03-24T07:30:35;6.18;;;4.70;;
29432;SDS011;16405;53.964;13.448;2023-03-24T07:33:03;10.43;;;4.50;;
29432;SDS011;16405;53.964;13.448;2023-03-24T07:35:31;7.35;;;4.20;;
29432;SDS011;16405;53.964;13.448;2023-03-24T07:37:58;9.07;;;4.70;;
29432;SDS011;16405;53.964;13.448;2023-03-24T07:40:25;10.27;;;4.55;;
29432;SDS011;16405;53.964;13.448;2023-03-24T07:42:51;13.27;;;4.30;;
29432;SDS011;16405;53.964;13.448;2023-03-24T07:45:26;8.40;;;4.05;;
29432;SDS011;16405;53.964;13.448;2023-03-24T07:47:52;7.57;;;4.30;;
29432;SDS011;16405;53.964;13.448;2023-03-24T07:50:30;7.22;;;4.65;;
29432;SDS011;16405;53.964;13.448;2023-03-24T07:52:56;11.82;;;5.18;;
29432;SDS011;16405;53.964;13.448;2023-03-24T07:55:22;6.00;;;4.25;;
29432;SDS011;16405;53.964;13.448;2023-03-24T07:57:48;8.30;;;4.53;;
29432;SDS011;16405;53.964;13.448;2023-03-24T08:00:17;8.35;;;4.82;;
29432;SDS011;16405;53.964;13.448;2023-03-24T08:02:49;7.95;;;4.30;;
29432;SDS011;16405;53.964;13.448;2023-03-24T08:05:18;7.32;;;3.63;;
29432;SDS011;16405;53.964;13.448;2023-03-24T08:07:48;6.00;;;3.50;;
29432;SDS011;16405;53.964;13.448;2023-03-24T08:10:23;6.68;;;3.92;;
29432;SDS011;16405;53.964;13.448;2023-03-24T08:12:54;6.78;;;3.30;;
29432;SDS011;16405;53.964;13.448;2023-03-24T08:15:21;7.15;;;4.00;;
29432;SDS011;16405;53.964;13.448;2023-03-24T08:17:48;6.32;;;3.00;;
29432;SDS011;16405;53.964;13.448;2023-03-24T08:20:23;5.25;;;3.30;;
29432;SDS011;16405;53.964;13.448;2023-03-24T08:22:51;5.85;;;3.50;;
29432;SDS011;16405;53.964;13.448;2023-03-24T08:25:27;6.70;;;3.55;;
29432;SDS011;16405;53.964;13.448;2023-03-24T08:27:53;8.40;;;3.63;;
29432;SDS011;16405;53.964;13.448;2023-03-24T08:30:20;4.63;;;3.47;;
29432;SDS011;16405;53.964;13.448;2023-03-24T08:32:53;5.55;;;3.25;;
29432;SDS011;16405;53.964;13.448;2023-03-24T08:35:23;5.38;;;3.67;;
29432;SDS011;16405;53.964;13.448;2023-03-24T08:38:15;6.68;;;3.55;;
29432;SDS011;16405;53.964;13.448;2023-03-24T08:40:57;11.02;;;4.32;;
29432;SDS011;16405;53.964;13.448;2023-03-24T08:46:33;6.65;;;4.13;;
29432;SDS011;16405;53.964;13.448;2023-03-24T08:49:22;7.57;;;4.03;;
29432;SDS011;16405;53.964;13.448;2023-03-24T08:51:53;9.63;;;4.32;;
29432;SDS011;16405;53.964;13.448;2023-03-24T08:54:35;9.10;;;4.50;;
29432;SDS011;16405;53.964;13.448;2023-03-24T08:57:04;8.70;;;4.60;;
29432;SDS011;16405;53.964;13.448;2023-03-24T08:59:32;7.82;;;3.97;;
29432;SDS011;16405;53.964;13.448;2023-03-24T09:01:58;5.20;;;3.67;;
29432;SDS011;16405;53.964;13.448;2023-03-24T09:04:25;5.90;;;3.80;;
29432;SDS011;16405;53.964;13.448;2023-03-24T09:06:51;6.15;;;3.70;;
29432;SDS011;16405;53.964;13.448;2023-03-24T09:09:24;11.18;;;4.30;;
29432;SDS011;16405;53.964;13.448;2023-03-24T09:12:06;7.07;;;4.35;;
29432;SDS011;16405;53.964;13.448;2023-03-24T09:14:33;7.18;;;4.63;;
29432;SDS011;16405;53.964;13.448;2023-03-24T09:17:05;7.65;;;4.55;;
29432;SDS011;16405;53.964;13.448;2023-03-24T09:19:34;7.80;;;4.78;;
29432;SDS011;16405;53.964;13.448;2023-03-24T09:22:00;7.68;;;5.22;;
29432;SDS011;16405;53.964;13.448;2023-03-24T09:24:26;6.43;;;4.60;;
29432;SDS011;16405;53.964;13.448;2023-03-24T09:26:59;7.78;;;4.95;;
29432;SDS011;16405;53.964;13.448;2023-03-24T09:29:28;9.10;;;4.90;;
29432;SDS011;16405;53.964;13.448;2023-03-24T09:31:55;8.75;;;4.68;;
29432;SDS011;16405;53.964;13.448;2023-03-24T09:34:30;9.27;;;4.95;;
29432;SDS011;16405;53.964;13.448;2023-03-24T09:36:58;8.40;;;5.15;;
29432;SDS011;16405;53.964;13.448;2023-03-24T09:39:30;12.75;;;5.93;;
29432;SDS011;16405;53.964;13.448;2023-03-24T09:41:59;6.93;;;4.68;;
29432;SDS011;16405;53.964;13.448;2023-03-24T09:50:05;18.30;;;11.23;;
29432;SDS011;16405;53.964;13.448;2023-03-24T09:53:19;12.82;;;8.63;;
29432;SDS011;16405;53.964;13.448;2023-03-24T10:02:14;6.70;;;5.03;;
29432;SDS011;16405;53.964;13.448;2023-03-24T10:04:54;10.13;;;5.20;;
29432;SDS011;16405;53.964;13.448;2023-03-24T10:10:07;4.90;;;3.83;;
29432;SDS011;16405;53.964;13.448;2023-03-24T10:13:09;7.32;;;4.20;;
29432;SDS011;16405;53.964;13.448;2023-03-24T10:16:37;7.13;;;3.97;;
29432;SDS011;16405;53.964;13.448;2023-03-24T10:27:25;6.80;;;3.70;;
29432;SDS011;16405;53.964;13.448;2023-03-24T10:30:27;3.92;;;3.40;;
29432;SDS011;16405;53.964;13.448;2023-03-24T10:33:17;5.47;;;3.55;;
29432;SDS011;16405;53.964;13.448;2023-03-24T10:38:37;3.47;;;2.67;;
29432;SDS011;16405;53.964;13.448;2023-03-24T10:41:05;3.83;;;2.35;;
29432;SDS011;16405;53.964;13.448;2023-03-24T10:43:58;5.45;;;2.40;;
29432;SDS011;16405;53.964;13.448;2023-03-24T10:50:05;5.45;;;2.38;;
29432;SDS011;16405;53.964;13.448;2023-03-24T10:52:49;3.92;;;2.53;;
29432;SDS011;16405;53.964;13.448;2023-03-24T10:55:39;2.40;;;1.90;;
29432;SDS011;16405;53.964;13.448;2023-03-24T10:58:55;4.22;;;2.20;;
29432;SDS011;16405;53.964;13.448;2023-03-24T11:04:16;4.78;;;1.73;;
29432;SDS011;16405;53.964;13.448;2023-03-24T11:10:57;5.28;;;1.85;;
29432;SDS011;16405;53.964;13.448;2023-03-24T11:14:09;10.55;;;1.27;;
29432;SDS011;16405;53.964;13.448;2023-03-24T11:16:49;3.22;;;1.20;;
29432;SDS011;16405;53.964;13.448;2023-03-24T11:29:01;3.50;;;1.27;;
29432;SDS011;16405;53.964;13.448;2023-03-24T11:34:59;3.15;;;0.90;;
29432;SDS011;16405;53.964;13.448;2023-03-24T11:41:03;4.00;;;1.10;;
29432;SDS011;16405;53.964;13.448;2023-03-24T11:43:45;5.13;;;1.00;;
29432;SDS011;16405;53.964;13.448;2023-03-24T11:49:47;7.80;;;1.20;;
29432;SDS011;16405;53.964;13.448;2023-03-24T11:52:19;7.53;;;1.42;;
29432;SDS011;16405;53.964;13.448;2023-03-24T11:55:13;4.82;;;1.20;;
29432;SDS011;16405;53.964;13.448;2023-03-24T12:05:38;9.32;;;1.42;;
29432;SDS011;16405;53.964;13.448;2023-03-24T12:08:51;6.40;;;1.48;;
29432;SDS011;16405;53.964;13.448;2023-03-24T12:15:29;9.57;;;1.40;;
29432;SDS011;16405;53.964;13.448;2023-03-24T12:18:55;8.23;;;2.00;;
29432;SDS011;16405;53.964;13.448;2023-03-24T12:24:49;5.35;;;1.30;;
29432;SDS011;16405;53.964;13.448;2023-03-24T12:37:38;10.57;;;1.75;;
29432;SDS011;16405;53.964;13.448;2023-03-24T12:49:20;9.45;;;1.73;;
29432;SDS011;16405;53.964;13.448;2023-03-24T12:55:20;11.70;;;1.70;;
29432;SDS011;16405;53.964;13.448;2023-03-24T13:01:01;12.52;;;3.00;;
29432;SDS011;16405;53.964;13.448;2023-03-24T13:13:01;8.82;;;1.70;;
29432;SDS011;16405;53.964;13.448;2023-03-24T13:15:56;9.38;;;2.00;;
29432;SDS011;16405;53.964;13.448;2023-03-24T13:18:54;8.05;;;1.60;;
29432;SDS011;16405;53.964;13.448;2023-03-24T13:21:29;7.65;;;1.67;;
29432;SDS011;16405;53.964;13.448;2023-03-24T13:24:12;8.13;;;1.55;;
29432;SDS011;16405;53.964;13.448;2023-03-24T13:33:15;9.60;;;2.00;;
29432;SDS011;16405;53.964;13.448;2023-03-24T13:38:39;10.43;;;1.65;;
29432;SDS011;16405;53.964;13.448;2023-03-24T13:41:34;7.82;;;1.40;;
29432;SDS011;16405;53.964;13.448;2023-03-24T13:44:29;8.50;;;1.60;;
29432;SDS011;16405;53.964;13.448;2023-03-24T13:54:17;8.25;;;1.40;;
29432;SDS011;16405;53.964;13.448;2023-03-24T13:57:05;7.00;;;1.30;;
29432;SDS011;16405;53.964;13.448;2023-03-24T14:00:02;5.32;;;1.27;;
29432;SDS011;16405;53.964;13.448;2023-03-24T14:06:03;8.13;;;1.63;;
29432;SDS011;16405;53.964;13.448;2023-03-24T14:11:47;7.20;;;1.55;;
29432;SDS011;16405;53.964;13.448;2023-03-24T14:14:25;9.85;;;1.73;;
29432;SDS011;16405;53.964;13.448;2023-03-24T14:17:45;9.32;;;1.48;;
29432;SDS011;16405;53.964;13.448;2023-03-24T14:24:27;6.00;;;1.40;;
29432;SDS011;16405;53.964;13.448;2023-03-24T14:37:02;6.90;;;1.15;;
29432;SDS011;16405;53.964;13.448;2023-03-24T14:39:58;8.35;;;1.30;;
29432;SDS011;16405;53.964;13.448;2023-03-24T14:45:09;6.47;;;1.58;;
29432;SDS011;16405;53.964;13.448;2023-03-24T14:54:51;6.88;;;1.40;;
29432;SDS011;16405;53.964;13.448;2023-03-24T15:00:30;7.72;;;1.40;;
29432;SDS011;16405;53.964;13.448;2023-03-24T15:06:48;9.43;;;1.58;;
29432;SDS011;16405;53.964;13.448;2023-03-24T15:13:36;9.52;;;1.40;;
29432;SDS011;16405;53.964;13.448;2023-03-24T15:25:18;9.52;;;1.67;;
29432;SDS011;16405;53.964;13.448;2023-03-24T15:28:45;8.23;;;1.55;;
29432;SDS011;16405;53.964;13.448;2023-03-24T15:37:30;11.20;;;1.95;;
29432;SDS011;16405;53.964;13.448;2023-03-24T15:42:57;8.50;;;1.63;;
29432;SDS011;16405;53.964;13.448;2023-03-24T15:46:16;7.28;;;1.40;;
29432;SDS011;16405;53.964;13.448;2023-03-24T15:49:21;9.02;;;1.40;;
29432;SDS011;16405;53.964;13.448;2023-03-24T15:55:43;8.45;;;1.77;;
29432;SDS011;16405;53.964;13.448;2023-03-24T15:58:23;8.75;;;1.58;;
29432;SDS011;16405;53.964;13.448;2023-03-24T16:01:03;11.30;;;1.52;;
29432;SDS011;16405;53.964;13.448;2023-03-24T16:04:00;8.20;;;1.92;;
29432;SDS011;16405;53.964;13.448;2023-03-24T16:07:20;14.55;;;1.60;;
29432;SDS011;16405;53.964;13.448;2023-03-24T16:16:48;7.25;;;1.50;;
29432;SDS011;16405;53.964;13.448;2023-03-24T16:19:48;10.07;;;1.85;;
29432;SDS011;16405;53.964;13.448;2023-03-24T16:22:14;7.50;;;1.60;;
29432;SDS011;16405;53.964;13.448;2023-03-24T16:24:40;10.73;;;2.00;;
29432;SDS011;16405;53.964;13.448;2023-03-24T16:27:07;5.90;;;1.38;;
29432;SDS011;16405;53.964;13.448;2023-03-24T16:29:35;11.35;;;1.90;;
29432;SDS011;16405;53.964;13.448;2023-03-24T16:32:03;6.95;;;1.60;;
29432;SDS011;16405;53.964;13.448;2023-03-24T16:34:30;11.85;;;1.92;;
29432;SDS011;16405;53.964;13.448;2023-03-24T16:37:00;9.43;;;2.25;;
29432;SDS011;16405;53.964;13.448;2023-03-24T16:39:28;10.57;;;1.60;;
29432;SDS011;16405;53.964;13.448;2023-03-24T16:41:55;6.15;;;1.63;;
29432;SDS011;16405;53.964;13.448;2023-03-24T16:44:24;12.60;;;1.95;;
29432;SDS011;16405;53.964;13.448;2023-03-24T16:46:51;12.90;;;2.15;;
29432;SDS011;16405;53.964;13.448;2023-03-24T16:49:18;8.25;;;1.73;;
29432;SDS011;16405;53.964;13.448;2023-03-24T16:51:45;10.48;;;1.90;;
29432;SDS011;16405;53.964;13.448;2023-03-24T16:54:13;13.32;;;2.08;;
29432;SDS011;16405;53.964;13.448;2023-03-24T16:56:39;15.00;;;2.53;;
29432;SDS011;16405;53.964;13.448;2023-03-24T16:59:05;15.18;;;2.15;;
29432;SDS011;16405;53.964;13.448;2023-03-24T17:01:36;11.65;;;2.50;;
29432;SDS011;16405;53.964;13.448;2023-03-24T17:04:13;10.50;;;1.98;;
29432;SDS011;16405;53.964;13.448;2023-03-24T17:06:43;13.65;;;2.30;;
29432;SDS011;16405;53.964;13.448;2023-03-24T17:09:16;11.38;;;2.72;;
29432;SDS011;16405;53.964;13.448;2023-03-24T17:11:46;11.75;;;2.22;;
29432;SDS011;16405;53.964;13.448;2023-03-24T17:14:22;11.98;;;2.67;;
29432;SDS011;16405;53.964;13.448;2023-03-24T17:16:48;15.07;;;2.25;;
29432;SDS011;16405;53.964;13.448;2023-03-24T17:19:17;12.68;;;1.92;;
29432;SDS011;16405;53.964;13.448;2023-03-24T17:21:47;9.75;;;2.20;;
29432;SDS011;16405;53.964;13.448;2023-03-24T17:24:16;13.32;;;2.35;;
29432;SDS011;16405;53.964;13.448;2023-03-24T17:26:42;13.45;;;2.45;;
29432;SDS011;16405;53.964;13.448;2023-03-24T17:29:11;17.17;;;2.60;;
29432;SDS011;16405;53.964;13.448;2023-03-24T17:31:38;12.93;;;2.25;;
29432;SDS011;16405;53.964;13.448;2023-03-24T17:34:04;13.20;;;2.50;;
29432;SDS011;16405;53.964;13.448;2023-03-24T17:36:30;16.27;;;3.05;;
29432;SDS011;16405;53.964;13.448;2023-03-24T17:38:56;13.25;;;2.88;;
29432;SDS011;16405;53.964;13.448;2023-03-24T17:41:22;12.32;;;2.30;;
29432;SDS011;16405;53.964;13.448;2023-03-24T17:43:52;16.20;;;2.40;;
29432;SDS011;16405;53.964;13.448;2023-03-24T17:46:18;15.43;;;2.63;;
29432;SDS011;16405;53.964;13.448;2023-03-24T17:48:44;11.30;;;2.45;;
29432;SDS011;16405;53.964;13.448;2023-03-24T17:51:10;11.27;;;2.90;;
29432;SDS011;16405;53.964;13.448;2023-03-24T17:53:36;11.48;;;2.63;;
29432;SDS011;16405;53.964;13.448;2023-03-24T17:56:02;17.02;;;2.67;;
29432;SDS011;16405;53.964;13.448;2023-03-24T17:58:34;20.30;;;8.07;;
29432;SDS011;16405;53.964;13.448;2023-03-24T18:01:01;13.82;;;5.40;;
29432;SDS011;16405;53.964;13.448;2023-03-24T18:03:32;13.77;;;2.97;;
29432;SDS011;16405;53.964;13.448;2023-03-24T18:06:06;21.75;;;11.45;;
29432;SDS011;16405;53.964;13.448;2023-03-24T18:08:37;15.93;;;4.10;;
29432;SDS011;16405;53.964;13.448;2023-03-24T18:11:06;18.48;;;4.18;;
29432;SDS011;16405;53.964;13.448;2023-03-24T18:13:38;18.63;;;6.35;;
29432;SDS011;16405;53.964;13.448;2023-03-24T18:16:09;15.05;;;4.38;;
29432;SDS011;16405;53.964;13.448;2023-03-24T18:18:36;16.83;;;3.85;;
29432;SDS011;16405;53.964;13.448;2023-03-24T18:21:03;13.07;;;3.50;;
29432;SDS011;16405;53.964;13.448;2023-03-24T18:23:31;12.65;;;3.10;;
29432;SDS011;16405;53.964;13.448;2023-03-24T18:26:02;14.98;;;4.22;;
29432;SDS011;16405;53.964;13.448;2023-03-24T18:28:32;18.95;;;7.15;;
29432;SDS011;16405;53.964;13.448;2023-03-24T18:31:10;23.33;;;4.45;;
29432;SDS011;16405;53.964;13.448;2023-03-24T18:33:41;12.15;;;3.08;;
29432;SDS011;16405;53.964;13.448;2023-03-24T18:36:11;23.02;;;3.10;;
29432;SDS011;16405;53.964;13.448;2023-03-24T18:38:40;16.88;;;3.38;;
29432;SDS011;16405;53.964;13.448;2023-03-24T18:41:07;17.92;;;3.10;;
29432;SDS011;16405;53.964;13.448;2023-03-24T18:43:36;17.85;;;3.45;;
29432;SDS011;16405;53.964;13.448;2023-03-24T18:46:03;16.63;;;3.08;;
29432;SDS011;16405;53.964;13.448;2023-03-24T18:48:33;17.35;;;3.40;;
29432;SDS011;16405;53.964;13.448;2023-03-24T18:51:04;12.63;;;2.80;;
29432;SDS011;16405;53.964;13.448;2023-03-24T18:53:30;21.23;;;3.03;;
29432;SDS011;16405;53.964;13.448;2023-03-24T18:55:58;14.23;;;3.30;;
29432;SDS011;16405;53.964;13.448;2023-03-24T18:58:25;15.10;;;2.97;;
29432;SDS011;16405;53.964;13.448;2023-03-24T19:00:53;17.80;;;2.92;;
29432;SDS011;16405;53.964;13.448;2023-03-24T19:03:21;16.58;;;2.90;;
29432;SDS011;16405;53.964;13.448;2023-03-24T19:05:48;14.93;;;3.08;;
29432;SDS011;16405;53.964;13.448;2023-03-24T19:08:19;15.70;;;3.47;;
29432;SDS011;16405;53.964;13.448;2023-03-24T19:10:48;14.25;;;3.03;;
29432;SDS011;16405;53.964;13.448;2023-03-24T19:13:17;16.60;;;2.92;;
29432;SDS011;16405;53.964;13.448;2023-03-24T19:15:50;12.10;;;2.90;;
29432;SDS011;16405;53.964;13.448;2023-03-24T19:18:19;9.48;;;2.67;;
29432;SDS011;16405;53.964;13.448;2023-03-24T19:20:47;18.60;;;3.10;;
29432;SDS011;16405;53.964;13.448;2023-03-24T19:23:23;15.20;;;2.90;;
29432;SDS011;16405;53.964;13.448;2023-03-24T19:25:50;19.45;;;3.25;;
29432;SDS011;16405;53.964;13.448;2023-03-24T19:28:26;16.58;;;3.60;;
29432;SDS011;16405;53.964;13.448;2023-03-24T19:31:04;15.45;;;3.72;;
29432;SDS011;16405;53.964;13.448;2023-03-24T19:33:36;14.02;;;3.67;;
29432;SDS011;16405;53.964;13.448;2023-03-24T19:36:03;14.30;;;3.42;;
29432;SDS011;16405;53.964;13.448;2023-03-24T19:38:37;16.63;;;3.10;;